createdAt,value
2022-09-28T00:01:10.914Z,15.90
2022-09-28T00:03:39.073Z,15.75
2022-09-28T00:06:10.256Z,15.64
2022-09-28T00:08:38.754Z,15.62
2022-09-28T00:11:13.879Z,15.39
2022-09-28T00:13:42.985Z,15.30
2022-09-28T00:16:14.586Z,15.29
2022-09-28T00:18:43.059Z,15.38
2022-09-28T00:21:13.473Z,15.25
2022-09-28T00:23:56.395Z,15.17
2022-09-28T00:26:26.257Z,15.14
2022-09-28T00:28:54.640Z,15.16
2022-09-28T00:31:23.808Z,15.10
2022-09-28T00:33:52.268Z,14.81
2022-09-28T00:36:20.512Z,14.80
2022-09-28T00:38:48.593Z,14.77
2022-09-28T00:41:18.899Z,14.75
2022-09-28T00:43:48.512Z,14.66
2022-09-28T00:46:21.169Z,14.60
2022-09-28T00:48:54.577Z,14.70
2022-09-28T00:51:23.152Z,14.79
2022-09-28T00:53:52.844Z,14.82
2022-09-28T00:56:26.287Z,14.79
2022-09-28T00:58:56.140Z,14.75
2022-09-28T01:01:24.440Z,14.79
2022-09-28T01:03:52.584Z,14.87
2022-09-28T01:06:24.198Z,14.89
2022-09-28T01:08:55.980Z,14.98
2022-09-28T01:11:24.152Z,14.95
2022-09-28T01:13:57.793Z,14.97
2022-09-28T01:16:34.215Z,14.99
2022-09-28T01:19:13.894Z,15.09
2022-09-28T01:21:52.469Z,15.16
2022-09-28T01:24:40.944Z,15.17
2022-09-28T01:27:17.171Z,15.21
2022-09-28T01:29:49.610Z,15.30
2022-09-28T01:32:43.699Z,15.34
2022-09-28T01:35:16.221Z,15.41
2022-09-28T01:37:52.023Z,15.51
2022-09-28T01:40:22.827Z,15.57
2022-09-28T01:42:58.645Z,15.52
2022-09-28T01:45:31.375Z,15.52
2022-09-28T01:48:03.473Z,15.48
2022-09-28T01:50:36.418Z,15.48
2022-09-28T01:53:11.603Z,15.47
2022-09-28T01:55:43.578Z,15.41
2022-09-28T01:58:17.169Z,15.53
2022-09-28T02:00:50.706Z,15.59
2022-09-28T02:03:22.678Z,15.63
2022-09-28T02:05:54.861Z,15.68
2022-09-28T02:08:28.747Z,15.62
2022-09-28T02:11:03.675Z,15.67
2022-09-28T02:13:36.692Z,15.65
2022-09-28T02:16:12.014Z,15.63
2022-09-28T02:18:40.374Z,15.77
2022-09-28T02:21:14.355Z,15.80
2022-09-28T02:23:53.795Z,15.77
2022-09-28T02:26:26.717Z,15.72
2022-09-28T02:28:56.370Z,15.83
2022-09-28T02:31:24.663Z,15.81
2022-09-28T02:33:55.037Z,15.84
2022-09-28T02:36:23.505Z,15.90
2022-09-28T02:38:52.290Z,15.90
2022-09-28T02:41:31.370Z,15.88
2022-09-28T02:44:11.701Z,15.86
2022-09-28T02:46:46.790Z,15.78
2022-09-28T02:49:23.394Z,15.89
2022-09-28T02:52:04.719Z,15.86
2022-09-28T02:54:48.673Z,15.81
2022-09-28T02:57:32.672Z,15.84
2022-09-28T03:00:08.240Z,15.69
2022-09-28T03:02:45.284Z,15.73
2022-09-28T03:05:20.853Z,15.75
2022-09-28T03:07:58.606Z,15.71
2022-09-28T03:10:35.288Z,15.72
2022-09-28T03:13:05.019Z,15.67
2022-09-28T03:15:36.350Z,15.67
2022-09-28T03:18:04.701Z,15.62
2022-09-28T03:20:34.851Z,15.66
2022-09-28T03:25:51.282Z,15.73
2022-09-28T03:28:19.640Z,15.69
2022-09-28T03:30:49.242Z,15.74
2022-09-28T03:33:17.367Z,15.79
2022-09-28T03:35:48.355Z,15.79
2022-09-28T03:38:17.037Z,15.75
2022-09-28T03:40:45.626Z,15.76
2022-09-28T03:43:13.846Z,15.69
2022-09-28T03:45:41.941Z,15.64
2022-09-28T03:48:11.437Z,15.69
2022-09-28T03:50:39.620Z,15.74
2022-09-28T03:53:08.062Z,15.61
2022-09-28T03:55:36.471Z,15.61
2022-09-28T03:58:04.543Z,15.65
2022-09-28T04:00:32.964Z,15.71
2022-09-28T04:03:01.114Z,15.74
2022-09-28T04:05:30.575Z,15.80
2022-09-28T04:07:58.966Z,15.74
2022-09-28T04:10:27.483Z,15.82
2022-09-28T04:12:56.239Z,15.88
2022-09-28T04:15:24.442Z,15.94
2022-09-28T04:17:52.962Z,16.12
2022-09-28T04:20:21.306Z,16.23
2022-09-28T04:22:50.822Z,16.26
2022-09-28T04:25:18.931Z,16.42
2022-09-28T04:28:04.342Z,16.48
2022-09-28T04:30:32.441Z,16.56
2022-09-28T04:33:00.593Z,16.73
2022-09-28T04:35:28.668Z,16.80
2022-09-28T04:37:58.522Z,16.84
2022-09-28T04:40:26.858Z,16.77
2022-09-28T04:42:56.402Z,16.80
2022-09-28T04:45:26.200Z,16.88
2022-09-28T04:47:54.693Z,16.91
2022-09-28T04:50:22.843Z,16.93
2022-09-28T04:52:50.955Z,17.04
2022-09-28T04:55:20.854Z,17.28
2022-09-28T04:57:48.886Z,17.45
2022-09-28T05:00:17.360Z,17.86
2022-09-28T05:02:45.796Z,18.59
2022-09-28T05:05:13.970Z,18.70
2022-09-28T05:07:42.093Z,18.21
2022-09-28T05:10:10.470Z,18.21
2022-09-28T05:12:40.060Z,18.45
2022-09-28T05:15:08.813Z,18.13
2022-09-28T05:17:36.880Z,18.20
2022-09-28T05:20:05.598Z,18.23
2022-09-28T05:22:34.609Z,18.30
2022-09-28T05:25:03.018Z,18.30
2022-09-28T05:27:31.140Z,18.10
2022-09-28T05:30:00.705Z,18.36
2022-09-28T05:32:28.901Z,18.65
2022-09-28T05:34:56.999Z,18.48
2022-09-28T05:37:25.107Z,18.51
2022-09-28T05:39:53.361Z,18.57
2022-09-28T05:42:21.472Z,18.73
2022-09-28T05:44:49.564Z,18.87
2022-09-28T05:47:19.117Z,18.96
2022-09-28T05:49:47.196Z,19.01
2022-09-28T05:52:15.552Z,19.44
2022-09-28T05:54:43.646Z,20.18
2022-09-28T05:57:11.725Z,21.03
2022-09-28T05:59:39.853Z,21.39
2022-09-28T06:02:08.561Z,21.12
2022-09-28T06:04:38.174Z,21.03
2022-09-28T06:07:06.360Z,21.44
2022-09-28T06:09:34.525Z,21.84
2022-09-28T06:12:02.841Z,22.78
2022-09-28T06:14:31.179Z,23.58
2022-09-28T06:16:59.379Z,23.44
2022-09-28T06:19:27.556Z,23.81
2022-09-28T06:21:59.273Z,24.55
2022-09-28T06:24:27.678Z,23.97
2022-09-28T06:26:55.885Z,24.57
2022-09-28T06:29:24.007Z,25.07
2022-09-28T06:31:52.614Z,24.89
2022-09-28T06:34:21.628Z,23.63
2022-09-28T06:36:49.877Z,23.00
2022-09-28T06:39:19.519Z,22.71
2022-09-28T06:41:47.639Z,22.58
2022-09-28T06:44:15.842Z,22.30
2022-09-28T06:46:43.918Z,21.94
2022-09-28T06:49:15.064Z,21.62
2022-09-28T06:51:47.414Z,20.79
2022-09-28T06:54:16.174Z,20.75
2022-09-28T06:56:45.670Z,20.55
2022-09-28T06:59:13.807Z,20.57
2022-09-28T07:01:42.108Z,20.59
2022-09-28T07:04:10.263Z,20.54
2022-09-28T07:06:38.637Z,20.61
2022-09-28T07:09:23.381Z,20.67
2022-09-28T07:11:56.905Z,20.73
2022-09-28T07:14:45.905Z,20.71
2022-09-28T07:17:14.786Z,20.83
2022-09-28T07:19:43.421Z,20.85
2022-09-28T07:22:18.956Z,20.92
2022-09-28T07:24:48.645Z,20.96
2022-09-28T07:27:18.147Z,21.12
2022-09-28T07:29:46.584Z,21.18
2022-09-28T07:32:14.646Z,21.29
2022-09-28T07:34:43.903Z,21.31
2022-09-28T07:37:13.513Z,21.28
2022-09-28T07:39:55.466Z,21.28
2022-09-28T07:42:25.497Z,21.41
2022-09-28T07:44:54.445Z,21.39
2022-09-28T07:47:29.760Z,21.46
2022-09-28T07:50:02.102Z,21.47
2022-09-28T07:52:30.416Z,21.57
2022-09-28T07:54:59.797Z,21.56
2022-09-28T07:57:32.328Z,21.77
2022-09-28T08:00:02.339Z,21.90
2022-09-28T08:02:33.037Z,22.03
2022-09-28T08:05:01.116Z,21.95
2022-09-28T08:07:29.557Z,21.88
2022-09-28T08:09:57.686Z,21.98
2022-09-28T08:12:25.935Z,21.97
2022-09-28T08:14:55.718Z,22.13
2022-09-28T08:17:23.797Z,22.34
2022-09-28T08:20:10.505Z,22.36
2022-09-28T08:22:38.754Z,22.34
2022-09-28T08:25:08.459Z,22.36
2022-09-28T08:27:36.766Z,22.35
2022-09-28T08:30:07.531Z,22.46
2022-09-28T08:32:35.883Z,22.54
2022-09-28T08:35:04.045Z,22.58
2022-09-28T08:37:32.108Z,22.68
2022-09-28T08:40:00.216Z,22.76
2022-09-28T08:42:36.083Z,22.58
2022-09-28T08:45:12.410Z,22.64
2022-09-28T08:48:10.207Z,22.73
2022-09-28T08:50:50.384Z,22.69
2022-09-28T08:53:32.383Z,22.70
2022-09-28T08:56:04.038Z,22.51
2022-09-28T08:58:37.741Z,22.60
2022-09-28T09:01:11.852Z,22.75
2022-09-28T09:03:42.085Z,22.71
2022-09-28T09:06:23.344Z,22.73
2022-09-28T09:09:03.348Z,22.86
2022-09-28T09:11:47.704Z,22.92
2022-09-28T09:14:54.812Z,23.14
2022-09-28T09:17:38.964Z,23.14
2022-09-28T09:20:18.799Z,23.11
2022-09-28T09:22:57.980Z,23.14
2022-09-28T09:25:29.859Z,23.35
2022-09-28T09:28:12.342Z,23.38
2022-09-28T09:30:50.445Z,23.31
2022-09-28T09:33:37.159Z,23.25
2022-09-28T09:36:16.802Z,23.26
2022-09-28T09:39:00.188Z,23.29
2022-09-28T09:41:42.804Z,23.16
2022-09-28T09:44:33.841Z,23.21
2022-09-28T09:47:08.303Z,23.30
2022-09-28T09:49:42.390Z,23.27
2022-09-28T09:52:20.618Z,23.41
2022-09-28T09:54:52.613Z,23.50
2022-09-28T09:57:24.060Z,23.60
2022-09-28T09:59:52.550Z,23.65
2022-09-28T10:02:26.569Z,23.67
2022-09-28T10:05:00.966Z,23.69
2022-09-28T10:07:41.403Z,23.77
2022-09-28T10:10:16.229Z,23.94
2022-09-28T10:12:44.968Z,23.89
2022-09-28T10:15:17.239Z,23.92
2022-09-28T10:17:45.393Z,24.10
2022-09-28T10:20:17.167Z,24.06
2022-09-28T10:22:45.536Z,23.98
2022-09-28T10:25:15.042Z,24.02
2022-09-28T10:27:46.693Z,23.98
2022-09-28T10:30:19.036Z,23.97
2022-09-28T10:32:49.012Z,24.09
2022-09-28T10:35:27.066Z,24.04
2022-09-28T10:38:04.548Z,23.82
2022-09-28T10:40:43.570Z,23.43
2022-09-28T10:43:23.043Z,22.73
2022-09-28T10:46:02.081Z,22.92
2022-09-28T10:48:34.955Z,22.93
2022-09-28T10:51:07.451Z,22.87
2022-09-28T10:53:37.609Z,23.25
2022-09-28T10:56:08.890Z,23.49
2022-09-28T10:58:42.005Z,23.52
2022-09-28T11:01:13.908Z,23.76
2022-09-28T11:03:56.445Z,23.86
2022-09-28T11:06:28.438Z,23.84
2022-09-28T11:08:58.798Z,23.27
2022-09-28T11:11:27.294Z,23.00
2022-09-28T11:14:00.541Z,23.01
2022-09-28T11:16:30.493Z,23.00
2022-09-28T11:19:00.376Z,22.99
2022-09-28T11:21:32.624Z,22.70
2022-09-28T11:24:08.813Z,22.62
2022-09-28T11:26:43.230Z,22.56
2022-09-28T11:29:28.471Z,22.50
2022-09-28T11:32:03.476Z,22.49
2022-09-28T11:34:57.623Z,22.43
2022-09-28T11:37:42.967Z,22.29
2022-09-28T11:40:24.452Z,22.32
2022-09-28T11:45:48.957Z,22.23
2022-09-28T11:48:20.177Z,21.95
2022-09-28T11:50:53.987Z,22.06
2022-09-28T11:53:30.312Z,22.13
2022-09-28T11:56:08.698Z,22.08
2022-09-28T11:58:41.991Z,21.75
2022-09-28T12:01:22.091Z,21.76
2022-09-28T12:03:55.031Z,21.79
2022-09-28T12:06:29.155Z,21.85
2022-09-28T12:09:07.076Z,21.83
2022-09-28T12:11:40.431Z,21.73
2022-09-28T12:14:16.856Z,21.76
2022-09-28T12:17:05.686Z,21.80
2022-09-28T12:19:40.819Z,21.86
2022-09-28T12:22:18.479Z,21.85
2022-09-28T12:24:52.251Z,21.90
2022-09-28T12:27:28.545Z,22.01
2022-09-28T12:30:03.597Z,21.99
2022-09-28T12:32:37.546Z,21.92
2022-09-28T12:35:13.327Z,21.98
2022-09-28T12:38:00.013Z,22.07
2022-09-28T12:40:49.240Z,22.17
2022-09-28T12:43:34.333Z,22.13
2022-09-28T12:46:37.700Z,21.96
2022-09-28T12:52:29.551Z,21.97
2022-09-28T12:55:29.323Z,21.98
2022-09-28T12:58:04.930Z,21.88
2022-09-28T13:00:41.213Z,21.82
2022-09-28T13:03:47.412Z,21.92
2022-09-28T13:06:34.620Z,22.09
2022-09-28T13:09:32.271Z,22.09
2022-09-28T13:12:15.996Z,22.01
2022-09-28T13:15:14.248Z,21.97
2022-09-28T13:17:50.639Z,21.89
2022-09-28T13:20:41.358Z,21.84
2022-09-28T13:23:16.269Z,21.65
2022-09-28T13:25:49.647Z,21.77
2022-09-28T13:28:25.046Z,21.71
2022-09-28T13:33:36.985Z,21.65
2022-09-28T13:36:06.136Z,21.60
2022-09-28T13:38:55.625Z,21.41
2022-09-28T13:41:29.176Z,21.42
2022-09-28T13:44:17.462Z,21.34
2022-09-28T13:47:00.107Z,21.18
2022-09-28T13:49:37.718Z,21.10
2022-09-28T13:52:10.811Z,21.08
2022-09-28T13:54:53.829Z,21.00
2022-09-28T13:57:27.442Z,20.87
2022-09-28T14:00:10.632Z,20.70
2022-09-28T14:02:45.753Z,20.73
2022-09-28T14:05:53.337Z,20.78
2022-09-28T14:08:35.397Z,20.70
2022-09-28T14:11:26.208Z,20.66
2022-09-28T14:14:03.090Z,20.63
2022-09-28T14:16:33.179Z,20.59
2022-09-28T14:19:08.522Z,20.54
2022-09-28T14:22:09.159Z,20.43
2022-09-28T14:25:01.760Z,20.42
2022-09-28T14:28:05.440Z,20.35
2022-09-28T14:30:49.658Z,20.33
2022-09-28T14:33:26.763Z,20.29
2022-09-28T14:35:58.893Z,20.25
2022-09-28T14:38:49.847Z,20.21
2022-09-28T14:41:34.309Z,20.13
2022-09-28T14:44:12.705Z,20.10
2022-09-28T14:46:44.808Z,19.99
2022-09-28T14:49:49.109Z,19.98
2022-09-28T14:52:39.323Z,19.97
2022-09-28T14:55:15.329Z,19.99
2022-09-28T14:57:44.047Z,19.86
2022-09-28T15:00:21.400Z,19.90
2022-09-28T15:02:52.761Z,19.81
2022-09-28T15:05:25.661Z,19.74
2022-09-28T15:07:56.145Z,19.70
2022-09-28T15:10:28.390Z,19.62
2022-09-28T15:12:58.256Z,19.55
2022-09-28T15:15:31.270Z,19.53
2022-09-28T15:18:09.753Z,19.44
2022-09-28T15:20:43.670Z,19.42
2022-09-28T15:26:08.653Z,19.29
2022-09-28T15:28:39.420Z,19.22
2022-09-28T15:31:07.562Z,19.18
2022-09-28T15:33:54.017Z,19.10
2022-09-28T15:36:25.658Z,19.06
2022-09-28T15:38:58.207Z,18.98
2022-09-28T15:41:29.017Z,18.95
2022-09-28T15:44:36.710Z,18.95
2022-09-28T15:47:16.802Z,18.91
2022-09-28T15:49:58.700Z,18.87
2022-09-28T15:52:34.115Z,18.85
2022-09-28T15:55:05.358Z,18.85
2022-09-28T15:57:38.216Z,18.83
2022-09-28T16:00:23.046Z,18.72
2022-09-28T16:03:03.318Z,18.59
2022-09-28T16:05:41.262Z,18.59
2022-09-28T16:08:21.476Z,18.56
2022-09-28T16:10:58.421Z,18.52
2022-09-28T16:13:28.198Z,18.58
2022-09-28T16:15:59.939Z,18.57
2022-09-28T16:18:30.074Z,18.48
2022-09-28T16:21:19.306Z,18.42
2022-09-28T16:23:52.255Z,18.36
2022-09-28T16:26:32.281Z,18.28
2022-09-28T16:29:07.152Z,18.24
2022-09-28T16:31:36.286Z,18.21
2022-09-28T16:34:20.227Z,18.14
2022-09-28T16:36:50.382Z,18.16
2022-09-28T16:39:19.925Z,18.15
2022-09-28T16:41:51.914Z,18.13
2022-09-28T16:44:26.643Z,18.09
2022-09-28T16:46:57.135Z,18.11
2022-09-28T16:49:26.933Z,18.09
2022-09-28T16:51:55.398Z,18.04
2022-09-28T16:54:42.703Z,18.03
2022-09-28T16:57:13.350Z,18.05
2022-09-28T16:59:42.885Z,18.07
2022-09-28T17:02:42.128Z,17.96
2022-09-28T17:05:08.102Z,17.85
2022-09-28T17:07:36.469Z,17.81
2022-09-28T17:10:04.819Z,17.69
2022-09-28T17:12:32.948Z,17.61
2022-09-28T17:15:02.582Z,17.59
2022-09-28T17:17:31.598Z,17.54
2022-09-28T17:19:59.758Z,17.53
2022-09-28T17:22:27.876Z,17.54
2022-09-28T17:24:56.015Z,17.60
2022-09-28T17:27:24.067Z,17.57
2022-09-28T17:29:52.152Z,17.54
2022-09-28T17:32:21.688Z,17.60
2022-09-28T17:35:00.944Z,17.65
2022-09-28T17:37:37.885Z,17.72
2022-09-28T17:40:17.049Z,17.79
2022-09-28T17:42:46.655Z,17.77
2022-09-28T17:45:15.589Z,17.76
2022-09-28T17:47:45.664Z,17.67
2022-09-28T17:50:22.727Z,17.64
2022-09-28T17:52:54.785Z,17.61
2022-09-28T17:55:24.319Z,17.57
2022-09-28T17:57:52.853Z,17.54
2022-09-28T18:00:21.205Z,17.51
2022-09-28T18:02:52.292Z,17.57
2022-09-28T18:05:20.442Z,17.46
2022-09-28T18:07:49.894Z,17.42
2022-09-28T18:10:21.413Z,17.36
2022-09-28T18:12:50.171Z,17.28
2022-09-28T18:15:19.936Z,17.31
2022-09-28T18:17:48.025Z,17.35
2022-09-28T18:20:17.538Z,17.35
2022-09-28T18:22:45.629Z,17.32
2022-09-28T18:25:13.751Z,17.29
2022-09-28T18:27:41.867Z,17.28
2022-09-28T18:30:10.782Z,17.27
2022-09-28T18:32:39.044Z,17.34
2022-09-28T18:35:10.252Z,17.35
2022-09-28T18:37:40.139Z,17.48
2022-09-28T18:40:10.392Z,17.52
2022-09-28T18:42:38.759Z,17.51
2022-09-28T18:45:08.555Z,17.41
2022-09-28T18:47:37.046Z,17.32
2022-09-28T18:50:05.871Z,17.31
2022-09-28T18:52:37.335Z,17.27
2022-09-28T18:55:08.237Z,17.20
2022-09-28T18:57:36.833Z,17.09
2022-09-28T19:00:07.255Z,17.04
2022-09-28T19:02:35.502Z,16.96
2022-09-28T19:05:03.741Z,16.91
2022-09-28T19:07:31.829Z,16.84
2022-09-28T19:09:59.936Z,16.96
2022-09-28T19:12:29.457Z,17.09
2022-09-28T19:14:59.670Z,17.06
2022-09-28T19:17:28.056Z,17.02
2022-09-28T19:19:56.274Z,16.96
2022-09-28T19:22:24.395Z,17.04
2022-09-28T19:24:52.522Z,17.08
2022-09-28T19:27:20.710Z,17.08
2022-09-28T19:29:50.635Z,17.04
2022-09-28T19:32:18.735Z,17.03
2022-09-28T19:34:46.869Z,17.00
2022-09-28T19:37:14.998Z,16.94
2022-09-28T19:39:43.116Z,16.90
2022-09-28T19:42:12.383Z,16.90
2022-09-28T19:44:40.464Z,16.99
2022-09-28T19:47:11.694Z,16.99
2022-09-28T19:49:41.211Z,17.06
2022-09-28T19:52:15.890Z,17.02
2022-09-28T19:54:45.936Z,17.10
2022-09-28T19:57:15.993Z,17.06
2022-09-28T19:59:44.340Z,16.99
2022-09-28T20:02:15.435Z,16.95
2022-09-28T20:04:43.618Z,16.95
2022-09-28T20:07:11.735Z,16.95
2022-09-28T20:09:39.928Z,16.95
2022-09-28T20:12:08.036Z,16.90
2022-09-28T20:14:38.173Z,16.83
2022-09-28T20:17:08.533Z,16.99
2022-09-28T20:19:38.230Z,16.96
2022-09-28T20:22:06.431Z,16.95
2022-09-28T20:24:34.571Z,16.94
2022-09-28T20:27:02.920Z,16.99
2022-09-28T20:29:33.495Z,16.99
2022-09-28T20:32:02.260Z,16.96
2022-09-28T20:34:30.407Z,16.87
2022-09-28T20:36:59.909Z,17.04
2022-09-28T20:39:28.041Z,17.04
2022-09-28T20:41:56.866Z,17.00
2022-09-28T20:44:25.084Z,16.93
2022-09-28T20:46:53.409Z,16.96
2022-09-28T20:49:21.765Z,16.94
2022-09-28T20:51:50.000Z,16.91
2022-09-28T20:54:19.607Z,16.86
2022-09-28T20:56:48.367Z,16.80
2022-09-28T20:59:16.646Z,16.79
2022-09-28T21:01:44.934Z,16.84
2022-09-28T21:04:13.410Z,16.95
2022-09-28T21:06:43.047Z,16.89
2022-09-28T21:09:13.403Z,16.80
2022-09-28T21:11:43.099Z,16.70
2022-09-28T21:14:11.348Z,16.62
2022-09-28T21:16:39.635Z,16.57
2022-09-28T21:19:08.115Z,16.56
2022-09-28T21:21:36.333Z,16.61
2022-09-28T21:24:04.804Z,16.59
2022-09-28T21:26:33.565Z,16.57
2022-09-28T21:29:05.416Z,16.46
2022-09-28T21:31:38.567Z,16.47
2022-09-28T21:34:06.906Z,16.62
2022-09-28T21:36:35.482Z,16.65
2022-09-28T21:39:08.268Z,16.68
2022-09-28T21:41:38.549Z,16.67
2022-09-28T21:44:08.609Z,16.63
2022-09-28T21:46:37.211Z,16.65
2022-09-28T21:49:07.562Z,16.62
2022-09-28T21:51:36.447Z,16.61
2022-09-28T21:54:04.820Z,16.65
2022-09-28T21:56:32.945Z,16.67
2022-09-28T21:59:01.442Z,16.68
2022-09-28T22:01:31.861Z,16.73
2022-09-28T22:04:00.233Z,16.79
2022-09-28T22:06:29.347Z,16.72
2022-09-28T22:08:57.754Z,16.71
2022-09-28T22:11:28.152Z,16.75
2022-09-28T22:13:58.058Z,16.73
2022-09-28T22:16:29.092Z,16.75
2022-09-28T22:18:59.149Z,16.73
2022-09-28T22:21:28.838Z,16.85
2022-09-28T22:24:01.031Z,16.77
2022-09-28T22:26:29.702Z,16.67
2022-09-28T22:28:59.200Z,16.63
2022-09-28T22:31:30.043Z,16.61
2022-09-28T22:33:59.998Z,16.55
2022-09-28T22:36:28.781Z,16.62
2022-09-28T22:38:58.504Z,16.73
2022-09-28T22:41:27.184Z,16.77
2022-09-28T22:43:57.355Z,16.84
2022-09-28T22:46:27.215Z,16.93
2022-09-28T22:48:57.088Z,16.86
2022-09-28T22:51:30.008Z,16.82
2022-09-28T22:53:58.504Z,16.75
2022-09-28T22:56:26.877Z,16.72
2022-09-28T22:58:55.151Z,16.70
2022-09-28T23:01:25.436Z,16.70
2022-09-28T23:03:54.720Z,16.68
2022-09-28T23:06:24.278Z,16.75
2022-09-28T23:08:54.340Z,16.77
2022-09-28T23:11:22.606Z,16.75
2022-09-28T23:13:51.595Z,16.75
2022-09-28T23:16:20.347Z,16.81
2022-09-28T23:18:49.295Z,16.80
2022-09-28T23:21:19.476Z,16.86
2022-09-28T23:23:55.355Z,16.84
2022-09-28T23:26:25.988Z,16.80
2022-09-28T23:28:54.795Z,16.81
2022-09-28T23:31:24.892Z,16.80
2022-09-28T23:33:57.473Z,16.75
2022-09-28T23:36:25.725Z,16.75
2022-09-28T23:38:55.569Z,16.70
2022-09-28T23:41:23.697Z,16.68
2022-09-28T23:43:52.041Z,16.63
2022-09-28T23:46:21.237Z,16.66
2022-09-28T23:48:50.034Z,16.71
2022-09-28T23:51:18.325Z,16.69
2022-09-28T23:53:47.113Z,16.71
2022-09-28T23:56:16.631Z,16.70
2022-09-28T23:58:45.141Z,16.63
